createdAt,value
2018-03-30T00:00:32.595Z,1006.13
2018-03-30T00:01:32.562Z,1006.17
2018-03-30T00:02:32.528Z,1006.15
2018-03-30T00:03:32.500Z,1006.18
2018-03-30T00:04:32.463Z,1006.18
2018-03-30T00:05:32.429Z,1006.21
2018-03-30T00:06:32.602Z,1006.21
2018-03-30T00:07:32.363Z,1006.19
2018-03-30T00:08:32.331Z,1006.19
2018-03-30T00:09:32.300Z,1006.11
2018-03-30T00:10:32.267Z,1006.15
2018-03-30T00:11:32.231Z,1006.11
2018-03-30T00:12:32.202Z,1006.15
2018-03-30T00:13:32.169Z,1006.10
2018-03-30T00:14:32.130Z,1006.06
2018-03-30T00:15:32.098Z,1006.07
2018-03-30T00:16:32.067Z,1006.03
2018-03-30T00:17:32.032Z,1006.04
2018-03-30T00:18:31.998Z,1006.01
2018-03-30T00:19:31.985Z,1006.01
2018-03-30T00:20:31.942Z,1006.01
2018-03-30T00:21:31.898Z,1006.06
2018-03-30T00:22:31.865Z,1006.04
2018-03-30T00:23:31.832Z,1006.03
2018-03-30T00:24:31.846Z,1006.02
2018-03-30T00:25:31.772Z,1005.99
2018-03-30T00:26:31.732Z,1005.98
2018-03-30T00:27:31.699Z,1005.99
2018-03-30T00:28:31.671Z,1005.96
2018-03-30T00:29:31.633Z,1005.99
2018-03-30T00:30:31.602Z,1006.01
2018-03-30T00:31:31.569Z,1006.01
2018-03-30T00:32:31.546Z,1005.99
2018-03-30T00:33:31.507Z,1006.04
2018-03-30T00:34:31.466Z,1006.05
2018-03-30T00:35:31.435Z,1006.04
2018-03-30T00:36:31.400Z,1006.05
2018-03-30T00:37:31.367Z,1006.03
2018-03-30T00:38:31.334Z,1006.02
2018-03-30T00:39:31.304Z,1006.04
2018-03-30T00:40:31.270Z,1006.05
2018-03-30T00:41:31.234Z,1006.05
2018-03-30T00:42:31.201Z,1006.04
2018-03-30T00:43:31.168Z,1006.01
2018-03-30T00:44:31.135Z,1006.05
2018-03-30T00:45:31.109Z,1006.09
2018-03-30T00:46:31.073Z,1006.09
2018-03-30T00:47:31.040Z,1006.10
2018-03-30T00:48:31.002Z,1006.12
2018-03-30T00:49:30.977Z,1006.13
2018-03-30T00:50:30.935Z,1006.13
2018-03-30T00:51:30.902Z,1006.13
2018-03-30T00:52:30.869Z,1006.16
2018-03-30T00:53:30.836Z,1006.21
2018-03-30T00:54:30.802Z,1006.25
2018-03-30T00:55:30.769Z,1006.23
2018-03-30T00:56:30.739Z,1006.25
2018-03-30T00:57:30.706Z,1006.27
2018-03-30T00:58:30.669Z,1006.26
2018-03-30T00:59:30.638Z,1006.26
2018-03-30T01:00:30.605Z,1006.29
2018-03-30T01:01:30.575Z,1006.31
2018-03-30T01:02:30.545Z,1006.27
2018-03-30T01:03:30.505Z,1006.27
2018-03-30T01:04:30.470Z,1006.27
2018-03-30T01:05:30.439Z,1006.28
2018-03-30T01:06:30.402Z,1006.29
2018-03-30T01:07:30.370Z,1006.24
2018-03-30T01:08:30.337Z,1006.25
2018-03-30T01:09:30.304Z,1006.22
2018-03-30T01:10:30.271Z,1006.19
2018-03-30T01:11:30.237Z,1006.21
2018-03-30T01:12:30.215Z,1006.16
2018-03-30T01:13:30.171Z,1006.19
2018-03-30T01:14:30.137Z,1006.20
2018-03-30T01:15:30.106Z,1006.17
2018-03-30T01:16:30.070Z,1006.18
2018-03-30T01:17:30.038Z,1006.20
2018-03-30T01:18:30.006Z,1006.19
2018-03-30T01:19:29.970Z,1006.23
2018-03-30T01:20:29.937Z,1006.22
2018-03-30T01:21:29.904Z,1006.23
2018-03-30T01:22:29.870Z,1006.26
2018-03-30T01:23:29.837Z,1006.27
2018-03-30T01:24:29.804Z,1006.26
2018-03-30T01:25:29.773Z,1006.26
2018-03-30T01:26:29.737Z,1006.29
2018-03-30T01:27:29.904Z,1006.29
2018-03-30T01:28:29.672Z,1006.25
2018-03-30T01:29:29.638Z,1006.28
2018-03-30T01:30:29.607Z,1006.28
2018-03-30T01:31:29.570Z,1006.28
2018-03-30T01:32:29.538Z,1006.30
2018-03-30T01:33:29.505Z,1006.28
2018-03-30T01:34:29.470Z,1006.27
2018-03-30T01:35:29.438Z,1006.32
2018-03-30T01:36:29.409Z,1006.27
2018-03-30T01:37:29.375Z,1006.28
2018-03-30T01:38:29.336Z,1006.26
2018-03-30T01:39:29.304Z,1006.31
2018-03-30T01:40:29.277Z,1006.31
2018-03-30T01:41:29.236Z,1006.33
2018-03-30T01:42:29.205Z,1006.31
2018-03-30T01:43:29.169Z,1006.31
2018-03-30T01:44:29.136Z,1006.30
2018-03-30T01:45:29.106Z,1006.32
2018-03-30T01:46:29.068Z,1006.30
2018-03-30T01:47:29.036Z,1006.30
2018-03-30T01:48:29.008Z,1006.27
2018-03-30T01:49:28.969Z,1006.32
2018-03-30T01:50:28.934Z,1006.32
2018-03-30T01:51:28.907Z,1006.30
2018-03-30T01:52:28.868Z,1006.31
2018-03-30T01:53:28.835Z,1006.34
2018-03-30T01:54:28.801Z,1006.30
2018-03-30T01:55:28.767Z,1006.32
2018-03-30T01:56:29.034Z,1006.33
2018-03-30T01:57:28.701Z,1006.36
2018-03-30T01:58:28.671Z,1006.37
2018-03-30T01:59:28.633Z,1006.36
2018-03-30T02:00:28.600Z,1006.33
2018-03-30T02:01:28.567Z,1006.33
2018-03-30T02:02:28.550Z,1006.31
2018-03-30T02:03:28.500Z,1006.30
2018-03-30T02:04:28.467Z,1006.28
2018-03-30T02:05:28.433Z,1006.29
2018-03-30T02:06:28.398Z,1006.32
2018-03-30T02:07:28.365Z,1006.33
2018-03-30T02:08:28.332Z,1006.31
2018-03-30T02:09:28.299Z,1006.34
2018-03-30T02:10:28.265Z,1006.29
2018-03-30T02:11:28.231Z,1006.35
2018-03-30T02:12:28.197Z,1006.30
2018-03-30T02:13:28.164Z,1006.29
2018-03-30T02:14:28.137Z,1006.28
2018-03-30T02:15:28.100Z,1006.25
2018-03-30T02:16:28.065Z,1006.27
2018-03-30T02:17:28.033Z,1006.27
2018-03-30T02:18:27.997Z,1006.28
2018-03-30T02:19:27.963Z,1006.27
2018-03-30T02:20:27.928Z,1006.26
2018-03-30T02:21:27.895Z,1006.27
2018-03-30T02:22:27.862Z,1006.29
2018-03-30T02:23:27.828Z,1006.27
2018-03-30T02:24:27.797Z,1006.27
2018-03-30T02:25:27.761Z,1006.26
2018-03-30T02:26:27.727Z,1006.27
2018-03-30T02:27:27.699Z,1006.27
2018-03-30T02:28:27.661Z,1006.25
2018-03-30T02:29:27.630Z,1006.30
2018-03-30T02:30:27.595Z,1006.32
2018-03-30T02:31:27.561Z,1006.34
2018-03-30T02:32:27.527Z,1006.30
2018-03-30T02:33:27.494Z,1006.34
2018-03-30T02:34:27.462Z,1006.31
2018-03-30T02:35:27.428Z,1006.24
2018-03-30T02:36:27.694Z,1006.22
2018-03-30T02:37:27.359Z,1006.17
2018-03-30T02:38:27.325Z,1006.15
2018-03-30T02:39:27.292Z,1006.12
2018-03-30T02:40:27.258Z,1006.10
2018-03-30T02:41:27.225Z,1006.15
2018-03-30T02:42:27.191Z,1006.12
2018-03-30T02:43:27.158Z,1006.14
2018-03-30T02:44:27.147Z,1006.15
2018-03-30T02:45:27.091Z,1006.16
2018-03-30T02:46:27.064Z,1006.17
2018-03-30T02:47:27.023Z,1006.15
2018-03-30T02:48:27.253Z,1006.13
2018-03-30T02:49:26.967Z,1006.14
2018-03-30T02:50:26.923Z,1006.15
2018-03-30T02:51:26.896Z,1006.14
2018-03-30T02:52:26.860Z,1006.17
2018-03-30T02:53:26.823Z,1006.17
2018-03-30T02:54:27.289Z,1006.16
2018-03-30T02:55:26.756Z,1006.18
2018-03-30T02:56:26.725Z,1006.15
2018-03-30T02:57:26.688Z,1006.19
2018-03-30T02:58:26.655Z,1006.19
2018-03-30T02:59:26.624Z,1006.15
2018-03-30T03:00:26.591Z,1006.14
2018-03-30T03:01:26.554Z,1006.16
2018-03-30T03:02:26.527Z,1006.16
2018-03-30T03:03:26.486Z,1006.16
2018-03-30T03:04:26.452Z,1006.19
2018-03-30T03:05:26.420Z,1006.21
2018-03-30T03:06:26.634Z,1006.27
2018-03-30T03:07:26.351Z,1006.26
2018-03-30T03:08:26.319Z,1006.25
2018-03-30T03:09:26.289Z,1006.25
2018-03-30T03:10:26.250Z,1006.25
2018-03-30T03:11:26.218Z,1006.21
2018-03-30T03:12:26.486Z,1006.19
2018-03-30T03:13:26.152Z,1006.19
2018-03-30T03:14:26.117Z,1006.18
2018-03-30T03:15:26.084Z,1006.16
2018-03-30T03:16:26.049Z,1006.16
2018-03-30T03:17:26.016Z,1006.17
2018-03-30T03:18:25.982Z,1006.18
2018-03-30T03:19:25.948Z,1006.15
2018-03-30T03:20:25.915Z,1006.18
2018-03-30T03:21:25.881Z,1006.16
2018-03-30T03:22:25.847Z,1006.16
2018-03-30T03:23:25.814Z,1006.12
2018-03-30T03:24:25.780Z,1006.15
2018-03-30T03:25:25.750Z,1006.14
2018-03-30T03:26:25.712Z,1006.15
2018-03-30T03:27:25.691Z,1006.15
2018-03-30T03:28:25.649Z,1006.19
2018-03-30T03:29:25.650Z,1006.20
2018-03-30T03:30:25.584Z,1006.25
2018-03-30T03:31:25.545Z,1006.22
2018-03-30T03:32:25.510Z,1006.18
2018-03-30T03:33:25.477Z,1006.19
2018-03-30T03:34:25.442Z,1006.13
2018-03-30T03:35:25.409Z,1006.14
2018-03-30T03:36:25.378Z,1006.06
2018-03-30T03:37:25.342Z,1006.05
2018-03-30T03:38:25.306Z,1006.05
2018-03-30T03:39:25.274Z,1005.97
2018-03-30T03:40:25.240Z,1005.95
2018-03-30T03:41:25.457Z,1005.91
2018-03-30T03:42:25.172Z,1005.90
2018-03-30T03:43:25.138Z,1005.93
2018-03-30T03:44:25.105Z,1005.96
2018-03-30T03:45:25.074Z,1006.00
2018-03-30T03:46:25.036Z,1006.00
2018-03-30T03:47:25.002Z,1006.00
2018-03-30T03:48:24.969Z,1006.02
2018-03-30T03:49:24.950Z,1006.02
2018-03-30T03:50:24.901Z,1006.01
2018-03-30T03:51:24.868Z,1006.00
2018-03-30T03:52:24.834Z,1006.02
2018-03-30T03:53:24.802Z,1006.01
2018-03-30T03:54:24.766Z,1005.95
2018-03-30T03:55:24.732Z,1005.95
2018-03-30T03:56:24.703Z,1005.98
2018-03-30T03:57:24.668Z,1005.95
2018-03-30T03:58:24.642Z,1005.97
2018-03-30T03:59:24.600Z,1005.98
2018-03-30T04:00:24.579Z,1005.95
2018-03-30T04:01:24.531Z,1005.99
2018-03-30T04:02:24.499Z,1006.00
2018-03-30T04:03:24.465Z,1006.06
2018-03-30T04:04:24.428Z,1006.06
2018-03-30T04:05:24.396Z,1006.10
2018-03-30T04:06:24.361Z,1006.13
2018-03-30T04:07:24.327Z,1006.14
2018-03-30T04:08:24.297Z,1006.14
2018-03-30T04:09:24.261Z,1006.16
2018-03-30T04:10:24.226Z,1006.20
2018-03-30T04:11:24.194Z,1006.18
2018-03-30T04:12:24.159Z,1006.21
2018-03-30T04:13:24.126Z,1006.24
2018-03-30T04:14:24.092Z,1006.20
2018-03-30T04:15:24.059Z,1006.20
2018-03-30T04:16:24.024Z,1006.17
2018-03-30T04:17:23.991Z,1006.21
2018-03-30T04:18:23.958Z,1006.18
2018-03-30T04:19:23.923Z,1006.15
2018-03-30T04:20:23.891Z,1006.14
2018-03-30T04:21:23.856Z,1006.13
2018-03-30T04:22:24.125Z,1006.07
2018-03-30T04:23:23.788Z,1006.02
2018-03-30T04:24:23.755Z,1006.02
2018-03-30T04:25:23.721Z,1006.02
2018-03-30T04:26:23.687Z,1006.01
2018-03-30T04:27:23.653Z,1006.00
2018-03-30T04:28:23.621Z,1006.05
2018-03-30T04:29:23.586Z,1006.00
2018-03-30T04:30:23.556Z,1006.00
2018-03-30T04:31:23.524Z,1006.01
2018-03-30T04:32:23.485Z,1006.00
2018-03-30T04:33:23.451Z,1006.01
2018-03-30T04:34:23.416Z,1005.97
2018-03-30T04:35:23.383Z,1005.95
2018-03-30T04:36:23.349Z,1005.99
2018-03-30T04:37:23.315Z,1005.99
2018-03-30T04:38:23.280Z,1005.99
2018-03-30T04:39:23.298Z,1006.00
2018-03-30T04:40:23.218Z,1006.02
2018-03-30T04:41:23.185Z,1006.03
2018-03-30T04:42:23.147Z,1006.06
2018-03-30T04:43:23.112Z,1006.01
2018-03-30T04:44:23.082Z,1006.03
2018-03-30T04:45:23.298Z,1005.96
2018-03-30T04:46:23.013Z,1006.02
2018-03-30T04:47:22.977Z,1006.01
2018-03-30T04:48:22.943Z,1005.96
2018-03-30T04:49:22.910Z,1005.97
2018-03-30T04:50:22.875Z,1005.97
2018-03-30T04:51:22.842Z,1005.99
2018-03-30T04:52:22.808Z,1005.98
2018-03-30T04:53:22.774Z,1006.02
2018-03-30T04:54:22.740Z,1006.00
2018-03-30T04:55:22.708Z,1006.03
2018-03-30T04:56:22.674Z,1006.04
2018-03-30T04:57:22.639Z,1006.03
2018-03-30T04:58:22.607Z,1006.00
2018-03-30T04:59:22.574Z,1006.04
2018-03-30T05:00:22.537Z,1006.04
2018-03-30T05:01:22.504Z,1006.00
2018-03-30T05:02:22.470Z,1006.06
2018-03-30T05:03:22.436Z,1006.05
2018-03-30T05:04:22.415Z,1006.06
2018-03-30T05:05:22.370Z,1006.04
2018-03-30T05:06:22.334Z,1006.06
2018-03-30T05:07:22.300Z,1006.06
2018-03-30T05:08:22.567Z,1006.08
2018-03-30T05:09:22.236Z,1006.10
2018-03-30T05:10:22.198Z,1006.13
2018-03-30T05:11:22.165Z,1006.15
2018-03-30T05:12:22.131Z,1006.19
2018-03-30T05:13:22.100Z,1006.13
2018-03-30T05:14:22.313Z,1006.13
2018-03-30T05:15:22.030Z,1006.12
2018-03-30T05:16:21.996Z,1006.16
2018-03-30T05:17:21.968Z,1006.24
2018-03-30T05:18:21.929Z,1006.25
2018-03-30T05:19:21.896Z,1006.30
2018-03-30T05:20:21.861Z,1006.32
2018-03-30T05:21:21.829Z,1006.36
2018-03-30T05:22:21.804Z,1006.34
2018-03-30T05:23:21.763Z,1006.34
2018-03-30T05:24:21.735Z,1006.37
2018-03-30T05:25:21.695Z,1006.45
2018-03-30T05:26:21.960Z,1006.38
2018-03-30T05:27:21.627Z,1006.45
2018-03-30T05:28:21.595Z,1006.45
2018-03-30T05:29:21.565Z,1006.46
2018-03-30T05:30:21.528Z,1006.53
2018-03-30T05:31:21.495Z,1006.55
2018-03-30T05:32:21.462Z,1006.58
2018-03-30T05:33:21.435Z,1006.58
2018-03-30T05:34:21.396Z,1006.59
2018-03-30T05:35:21.366Z,1006.61
2018-03-30T05:36:21.331Z,1006.60
2018-03-30T05:37:21.299Z,1006.60
2018-03-30T05:38:21.265Z,1006.66
2018-03-30T05:39:21.233Z,1006.66
2018-03-30T05:40:21.205Z,1006.68
2018-03-30T05:41:21.170Z,1006.66
2018-03-30T05:42:21.140Z,1006.67
2018-03-30T05:43:21.153Z,1006.70
2018-03-30T05:44:21.275Z,1006.70
2018-03-30T05:45:21.043Z,1006.70
2018-03-30T05:46:21.053Z,1006.69
2018-03-30T05:47:20.975Z,1006.70
2018-03-30T05:48:20.945Z,1006.69
2018-03-30T05:49:20.916Z,1006.73
2018-03-30T05:50:20.882Z,1006.73
2018-03-30T05:51:21.051Z,1006.66
2018-03-30T05:52:21.022Z,1006.63
2018-03-30T05:53:20.787Z,1006.60
2018-03-30T05:54:21.054Z,1006.57
2018-03-30T05:55:20.925Z,1006.62
2018-03-30T05:56:20.894Z,1006.64
2018-03-30T05:57:20.662Z,1006.64
2018-03-30T05:58:20.628Z,1006.58
2018-03-30T05:59:20.598Z,1006.60
2018-03-30T06:00:20.566Z,1006.59
2018-03-30T06:01:20.538Z,1006.63
2018-03-30T06:02:20.537Z,1006.60
2018-03-30T06:03:20.678Z,1006.56
2018-03-30T06:04:20.445Z,1006.60
2018-03-30T06:05:20.412Z,1006.64
2018-03-30T06:06:20.883Z,1006.64
2018-03-30T06:07:20.350Z,1006.72
2018-03-30T06:08:20.319Z,1006.75
2018-03-30T06:09:20.290Z,1006.80
2018-03-30T06:10:20.263Z,1006.80
2018-03-30T06:11:20.227Z,1006.82
2018-03-30T06:12:20.196Z,1006.84
2018-03-30T06:13:20.167Z,1006.88
2018-03-30T06:14:20.134Z,1006.87
2018-03-30T06:15:20.106Z,1006.88
2018-03-30T06:16:20.077Z,1006.94
2018-03-30T06:17:20.046Z,1006.97
2018-03-30T06:18:20.014Z,1006.95
2018-03-30T06:19:19.983Z,1007.04
2018-03-30T06:20:19.954Z,1007.07
2018-03-30T06:21:19.924Z,1007.16
2018-03-30T06:22:19.893Z,1007.17
2018-03-30T06:23:19.863Z,1007.20
2018-03-30T06:24:20.036Z,1007.24
2018-03-30T06:25:19.806Z,1007.30
2018-03-30T06:26:19.775Z,1007.32
2018-03-30T06:27:19.744Z,1007.38
2018-03-30T06:28:19.715Z,1007.46
2018-03-30T06:29:19.686Z,1007.51
2018-03-30T06:30:19.656Z,1007.56
2018-03-30T06:31:19.628Z,1007.59
2018-03-30T06:32:19.681Z,1007.76
2018-03-30T06:33:19.570Z,1007.74
2018-03-30T06:34:19.541Z,1007.53
2018-03-30T06:35:19.516Z,1007.29
2018-03-30T06:36:19.783Z,1007.27
2018-03-30T06:37:19.455Z,1007.28
2018-03-30T06:38:19.458Z,1007.27
2018-03-30T06:39:19.397Z,1007.34
2018-03-30T06:40:19.369Z,1007.29
2018-03-30T06:41:19.341Z,1007.36
2018-03-30T06:42:19.617Z,1007.34
2018-03-30T06:43:19.285Z,1007.23
2018-03-30T06:44:19.256Z,1007.28
2018-03-30T06:45:19.228Z,1007.27
2018-03-30T06:46:19.199Z,1007.26
2018-03-30T06:47:19.175Z,1007.17
2018-03-30T06:48:19.295Z,1007.21
2018-03-30T06:49:19.118Z,1007.29
2018-03-30T06:50:19.092Z,1007.22
2018-03-30T06:51:19.060Z,1007.44
2018-03-30T06:52:19.037Z,1007.34
2018-03-30T06:53:19.007Z,1007.27
2018-03-30T06:54:18.978Z,1007.39
2018-03-30T06:55:18.954Z,1007.39
2018-03-30T06:56:18.921Z,1007.36
2018-03-30T06:57:18.893Z,1007.34
2018-03-30T06:58:18.866Z,1007.33
2018-03-30T06:59:18.838Z,1007.27
2018-03-30T07:00:18.812Z,1007.28
2018-03-30T07:01:18.785Z,1007.32
2018-03-30T07:02:18.756Z,1007.34
2018-03-30T07:03:18.728Z,1007.40
2018-03-30T07:04:18.701Z,1007.47
2018-03-30T07:05:18.685Z,1007.52
2018-03-30T07:06:18.646Z,1007.56
2018-03-30T07:07:18.624Z,1007.61
2018-03-30T07:08:18.797Z,1007.64
2018-03-30T07:09:18.569Z,1007.73
2018-03-30T07:10:18.537Z,1007.74
2018-03-30T07:11:18.510Z,1007.87
2018-03-30T07:12:18.486Z,1007.86
2018-03-30T07:13:18.457Z,1007.77
2018-03-30T07:14:18.436Z,1007.77
2018-03-30T07:15:18.402Z,1007.94
2018-03-30T07:16:18.376Z,1007.92
2018-03-30T07:17:18.349Z,1007.94
2018-03-30T07:18:18.322Z,1007.94
2018-03-30T07:19:18.295Z,1007.93
2018-03-30T07:20:18.269Z,1007.99
2018-03-30T07:21:18.246Z,1007.81
2018-03-30T07:22:18.221Z,1007.85
2018-03-30T07:23:18.189Z,1007.72
2018-03-30T07:24:18.200Z,1008.04
2018-03-30T07:25:18.137Z,1008.08
2018-03-30T07:26:18.115Z,1008.10
2018-03-30T07:27:18.285Z,1008.22
2018-03-30T07:28:18.057Z,1008.28
2018-03-30T07:29:18.031Z,1008.41
2018-03-30T07:30:18.003Z,1008.39
2018-03-30T07:31:17.980Z,1008.37
2018-03-30T07:32:17.952Z,1008.42
2018-03-30T07:33:17.926Z,1007.92
2018-03-30T07:34:17.898Z,1008.36
2018-03-30T07:35:18.128Z,1007.90
2018-03-30T07:36:17.848Z,1008.10
2018-03-30T07:37:17.822Z,1008.42
2018-03-30T07:38:17.803Z,1008.38
2018-03-30T07:39:17.784Z,1008.32
2018-03-30T07:40:17.745Z,1008.44
2018-03-30T07:41:17.720Z,1008.49
2018-03-30T07:42:17.693Z,1008.48
2018-03-30T07:43:17.671Z,1008.44
2018-03-30T07:44:17.645Z,1008.50
2018-03-30T07:45:17.624Z,1008.45
2018-03-30T07:46:17.591Z,1008.44
2018-03-30T07:47:17.571Z,1008.43
2018-03-30T07:48:17.541Z,1008.40
2018-03-30T07:49:17.522Z,1008.62
2018-03-30T07:50:17.490Z,1008.65
2018-03-30T07:51:17.466Z,1008.60
2018-03-30T07:52:17.440Z,1008.60
2018-03-30T07:53:17.416Z,1008.58
2018-03-30T07:54:17.393Z,1008.60
2018-03-30T07:55:17.372Z,1008.72
2018-03-30T07:56:17.341Z,1008.70
2018-03-30T07:57:17.317Z,1008.64
2018-03-30T07:58:17.291Z,1008.77
2018-03-30T07:59:17.266Z,1008.80
2018-03-30T08:00:17.242Z,1008.70
2018-03-30T08:01:17.217Z,1008.67
2018-03-30T08:02:17.194Z,1008.75
2018-03-30T08:03:17.167Z,1008.67
2018-03-30T08:04:17.144Z,1008.66
2018-03-30T08:05:17.124Z,1008.74
2018-03-30T08:06:17.094Z,1008.79
2018-03-30T08:07:17.070Z,1008.74
2018-03-30T08:08:17.045Z,1008.79
2018-03-30T08:09:17.021Z,1008.82
2018-03-30T08:10:16.997Z,1008.74
2018-03-30T08:11:16.972Z,1008.63
2018-03-30T08:12:16.949Z,1008.56
2018-03-30T08:13:16.925Z,1008.58
2018-03-30T08:14:16.900Z,1008.54
2018-03-30T08:15:16.879Z,1008.56
2018-03-30T08:16:16.852Z,1008.54
2018-03-30T08:17:16.829Z,1008.67
2018-03-30T08:18:16.804Z,1008.57
2018-03-30T08:19:16.780Z,1008.67
2018-03-30T08:20:16.756Z,1008.75
2018-03-30T08:21:16.732Z,1008.75
2018-03-30T08:22:16.708Z,1008.76
2018-03-30T08:23:16.683Z,1008.78
2018-03-30T08:24:16.666Z,1008.61
2018-03-30T08:25:16.636Z,1008.64
2018-03-30T08:26:16.615Z,1008.54
2018-03-30T08:27:16.837Z,1008.45
2018-03-30T08:28:16.563Z,1008.49
2018-03-30T08:29:16.540Z,1008.62
2018-03-30T08:30:16.515Z,1008.75
2018-03-30T08:31:16.494Z,1008.66
2018-03-30T08:32:16.473Z,1008.59
2018-03-30T08:33:16.444Z,1008.60
2018-03-30T08:34:16.426Z,1008.51
2018-03-30T08:35:16.396Z,1008.06
2018-03-30T08:36:16.377Z,1007.64
2018-03-30T08:37:16.349Z,1007.59
2018-03-30T08:38:16.324Z,1007.56
2018-03-30T08:39:16.301Z,1007.60
2018-03-30T08:40:16.279Z,1007.64
2018-03-30T08:41:16.253Z,1007.83
2018-03-30T08:42:16.228Z,1007.85
2018-03-30T08:43:16.206Z,1007.87
2018-03-30T08:44:16.183Z,1007.91
2018-03-30T08:45:16.157Z,1008.04
2018-03-30T08:46:16.130Z,1008.11
2018-03-30T08:47:16.112Z,1008.09
2018-03-30T08:48:16.083Z,1008.09
2018-03-30T08:49:16.086Z,1007.84
2018-03-30T08:50:16.039Z,1007.83
2018-03-30T08:51:16.012Z,1007.90
2018-03-30T08:52:15.988Z,1007.91
2018-03-30T08:53:15.963Z,1007.88
2018-03-30T08:54:15.940Z,1007.72
2018-03-30T08:55:15.911Z,1007.93
2018-03-30T08:56:15.890Z,1008.10
2018-03-30T08:57:15.863Z,1008.31
2018-03-30T08:58:15.838Z,1008.51
2018-03-30T08:59:15.816Z,1008.59
2018-03-30T09:00:15.790Z,1008.66
2018-03-30T09:01:15.767Z,1008.82
2018-03-30T09:02:15.742Z,1008.62
2018-03-30T09:03:15.718Z,1008.21
2018-03-30T09:04:15.695Z,1007.92
2018-03-30T09:05:15.671Z,1007.71
2018-03-30T09:06:15.647Z,1007.57
2018-03-30T09:07:15.626Z,1007.36
2018-03-30T09:08:15.851Z,1007.23
2018-03-30T09:09:15.577Z,1007.03
2018-03-30T09:10:15.553Z,1007.05
2018-03-30T09:11:15.535Z,1007.07
2018-03-30T09:12:15.513Z,1007.08
2018-03-30T09:13:15.486Z,1007.21
2018-03-30T09:14:15.460Z,1007.23
2018-03-30T09:15:15.437Z,1007.21
2018-03-30T09:16:15.413Z,1007.17
2018-03-30T09:17:15.393Z,1007.09
2018-03-30T09:18:15.366Z,1007.14
2018-03-30T09:19:15.342Z,1007.10
2018-03-30T09:20:15.320Z,1007.10
2018-03-30T09:21:15.296Z,1007.12
2018-03-30T09:22:15.273Z,1007.10
2018-03-30T09:23:15.248Z,1007.10
2018-03-30T09:24:15.229Z,1007.10
2018-03-30T09:25:15.201Z,1007.04
2018-03-30T09:26:15.178Z,1007.04
2018-03-30T09:27:15.156Z,1007.00
2018-03-30T09:28:15.133Z,1006.99
2018-03-30T09:29:15.108Z,1006.97
2018-03-30T09:30:15.084Z,1006.98
2018-03-30T09:31:15.061Z,1006.97
2018-03-30T09:32:15.038Z,1006.98
2018-03-30T09:33:15.015Z,1006.98
2018-03-30T09:34:14.992Z,1006.96
2018-03-30T09:35:14.967Z,1007.03
2018-03-30T09:36:15.147Z,1007.07
2018-03-30T09:37:15.125Z,1007.06
2018-03-30T09:38:15.100Z,1007.10
2018-03-30T09:39:14.880Z,1006.98
2018-03-30T09:40:14.852Z,1007.04
2018-03-30T09:41:14.830Z,1007.05
2018-03-30T09:42:14.806Z,1007.00
2018-03-30T09:43:14.785Z,1006.94
2018-03-30T09:44:14.763Z,1007.00
2018-03-30T09:45:14.739Z,1007.00
2018-03-30T09:46:14.724Z,1006.97
2018-03-30T09:47:14.699Z,1006.98
2018-03-30T09:48:14.672Z,1006.98
2018-03-30T09:49:14.651Z,1006.95
2018-03-30T09:50:14.631Z,1006.97
2018-03-30T09:51:14.606Z,1006.93
2018-03-30T09:52:14.583Z,1006.99
2018-03-30T09:53:14.563Z,1007.02
2018-03-30T09:54:14.539Z,1007.05
2018-03-30T09:55:14.516Z,1007.06
2018-03-30T09:56:14.497Z,1007.02
2018-03-30T09:57:14.480Z,1007.00
2018-03-30T09:58:14.451Z,1007.02
2018-03-30T09:59:14.429Z,1007.01
2018-03-30T10:00:14.408Z,1006.99
2018-03-30T10:01:14.386Z,1006.96
2018-03-30T10:02:14.363Z,1006.95
2018-03-30T10:03:14.342Z,1006.94
2018-03-30T10:04:14.321Z,1006.93
2018-03-30T10:05:14.303Z,1006.98
2018-03-30T10:06:14.281Z,1006.95
2018-03-30T10:07:14.257Z,1006.97
2018-03-30T10:08:14.236Z,1006.95
2018-03-30T10:09:14.215Z,1006.95
2018-03-30T10:10:14.193Z,1006.94
2018-03-30T10:11:14.173Z,1006.87
2018-03-30T10:12:14.155Z,1006.82
2018-03-30T10:13:14.130Z,1006.88
2018-03-30T10:14:14.107Z,1006.79
2018-03-30T10:15:14.088Z,1006.87
2018-03-30T10:16:14.066Z,1006.83
2018-03-30T10:17:14.046Z,1006.81
2018-03-30T10:18:14.024Z,1006.80
2018-03-30T10:19:14.254Z,1006.80
2018-03-30T10:20:13.982Z,1006.78
2018-03-30T10:21:13.962Z,1006.74
2018-03-30T10:22:13.940Z,1006.80
2018-03-30T10:23:13.921Z,1006.58
2018-03-30T10:24:13.898Z,1006.74
2018-03-30T10:25:13.877Z,1006.77
2018-03-30T10:26:13.855Z,1006.68
2018-03-30T10:27:13.834Z,1006.65
2018-03-30T10:28:13.844Z,1006.54
2018-03-30T10:29:13.794Z,1006.56
2018-03-30T10:30:13.775Z,1006.52
2018-03-30T10:31:13.748Z,1006.51
2018-03-30T10:32:13.727Z,1006.53
2018-03-30T10:33:13.708Z,1006.52
2018-03-30T10:34:13.687Z,1006.48
2018-03-30T10:35:13.669Z,1006.36
2018-03-30T10:36:13.639Z,1006.48
2018-03-30T10:37:13.617Z,1006.41
2018-03-30T10:38:13.594Z,1006.39
2018-03-30T10:39:13.578Z,1006.36
2018-03-30T10:40:13.549Z,1006.32
2018-03-30T10:41:13.526Z,1006.29
2018-03-30T10:42:13.752Z,1006.31
2018-03-30T10:43:13.479Z,1006.26
2018-03-30T10:44:13.456Z,1006.30
2018-03-30T10:45:13.438Z,1006.33
2018-03-30T10:46:13.411Z,1006.24
2018-03-30T10:47:13.387Z,1006.34
2018-03-30T10:48:13.363Z,1006.31
2018-03-30T10:49:13.339Z,1006.33
2018-03-30T10:50:13.315Z,1006.27
2018-03-30T10:51:13.292Z,1006.28
2018-03-30T10:52:13.268Z,1006.27
2018-03-30T10:53:13.245Z,1006.26
2018-03-30T10:54:13.220Z,1006.37
2018-03-30T10:55:13.197Z,1006.36
2018-03-30T10:56:13.173Z,1006.37
2018-03-30T10:57:13.152Z,1006.36
2018-03-30T10:58:13.125Z,1006.45
2018-03-30T10:59:13.102Z,1006.40
2018-03-30T11:00:13.084Z,1006.33
2018-03-30T11:01:13.056Z,1006.43
2018-03-30T11:02:13.031Z,1006.46
2018-03-30T11:03:13.007Z,1006.65
2018-03-30T11:04:12.988Z,1006.61
2018-03-30T11:05:12.986Z,1006.62
2018-03-30T11:06:12.938Z,1006.75
2018-03-30T11:07:12.913Z,1006.80
2018-03-30T11:08:12.891Z,1006.87
2018-03-30T11:09:12.869Z,1006.88
2018-03-30T11:10:12.846Z,1006.96
2018-03-30T11:11:12.824Z,1007.02
2018-03-30T11:12:13.106Z,1007.08
2018-03-30T11:13:12.781Z,1007.02
2018-03-30T11:14:12.760Z,1007.16
2018-03-30T11:15:12.740Z,1007.01
2018-03-30T11:16:12.719Z,1007.40
2018-03-30T11:17:12.697Z,1007.51
2018-03-30T11:18:12.675Z,1007.57
2018-03-30T11:19:12.656Z,1007.49
2018-03-30T11:20:12.641Z,1007.43
2018-03-30T11:21:12.616Z,1007.45
2018-03-30T11:22:12.596Z,1007.30
2018-03-30T11:23:12.576Z,1007.34
2018-03-30T11:24:12.557Z,1007.27
2018-03-30T11:25:12.536Z,1007.19
2018-03-30T11:26:12.522Z,1007.09
2018-03-30T11:27:12.498Z,1007.11
2018-03-30T11:28:12.480Z,1007.00
2018-03-30T11:29:12.761Z,1006.95
2018-03-30T11:30:12.445Z,1006.94
2018-03-30T11:31:12.425Z,1006.48
2018-03-30T11:32:12.404Z,1006.83
2018-03-30T11:33:12.391Z,1006.70
2018-03-30T11:34:12.365Z,1006.69
2018-03-30T11:35:12.347Z,1006.55
2018-03-30T11:36:12.328Z,1006.55
2018-03-30T11:37:12.309Z,1006.19
2018-03-30T11:38:12.289Z,1006.68
2018-03-30T11:39:12.270Z,1006.61
2018-03-30T11:40:12.252Z,1006.69
2018-03-30T11:41:12.482Z,1006.63
2018-03-30T11:42:12.215Z,1006.55
2018-03-30T11:43:12.194Z,1006.39
2018-03-30T11:44:12.174Z,1006.50
2018-03-30T11:45:12.156Z,1006.53
2018-03-30T11:46:12.137Z,1006.48
2018-03-30T11:47:12.118Z,1006.49
2018-03-30T11:48:12.099Z,1006.49
2018-03-30T11:49:12.084Z,1006.50
2018-03-30T11:50:12.062Z,1006.38
2018-03-30T11:51:12.044Z,1006.31
2018-03-30T11:52:12.026Z,1006.32
2018-03-30T11:53:12.025Z,1006.22
2018-03-30T11:54:11.990Z,1006.05
2018-03-30T11:55:11.973Z,1006.07
2018-03-30T11:56:11.953Z,1006.01
2018-03-30T11:57:11.940Z,1005.93
2018-03-30T11:58:11.921Z,1005.77
2018-03-30T11:59:11.907Z,1005.73
2018-03-30T12:00:11.887Z,1005.74
2018-03-30T12:01:11.865Z,1005.75
2018-03-30T12:02:11.847Z,1005.62
2018-03-30T12:03:11.830Z,1005.65
2018-03-30T12:04:11.813Z,1005.61
2018-03-30T12:05:11.799Z,1005.63